sensor_id;sensor_type;location;lat;lon;timestamp;P1;durP1;ratioP1;P2;durP2;ratioP2
22359;SDS011;11347;52.030;4.690;2022-11-15T00:02:21;21.60;;;9.30;;
22359;SDS011;11347;52.030;4.690;2022-11-15T00:04:47;19.63;;;8.67;;
22359;SDS011;11347;52.030;4.690;2022-11-15T00:07:12;18.60;;;9.13;;
22359;SDS011;11347;52.030;4.690;2022-11-15T00:09:38;20.00;;;8.60;;
22359;SDS011;11347;52.030;4.690;2022-11-15T00:12:03;21.07;;;9.40;;
22359;SDS011;11347;52.030;4.690;2022-11-15T00:14:29;20.47;;;9.37;;
22359;SDS011;11347;52.030;4.690;2022-11-15T00:16:54;20.37;;;9.13;;
22359;SDS011;11347;52.030;4.690;2022-11-15T00:19:20;20.33;;;9.33;;
22359;SDS011;11347;52.030;4.690;2022-11-15T00:21:46;20.57;;;9.67;;
22359;SDS011;11347;52.030;4.690;2022-11-15T00:24:11;22.17;;;9.87;;
22359;SDS011;11347;52.030;4.690;2022-11-15T00:26:37;19.50;;;8.90;;
22359;SDS011;11347;52.030;4.690;2022-11-15T00:29:02;17.07;;;8.80;;
22359;SDS011;11347;52.030;4.690;2022-11-15T00:31:28;21.07;;;9.60;;
22359;SDS011;11347;52.030;4.690;2022-11-15T00:33:53;19.43;;;8.93;;
22359;SDS011;11347;52.030;4.690;2022-11-15T00:36:19;19.67;;;9.27;;
22359;SDS011;11347;52.030;4.690;2022-11-15T00:38:44;21.03;;;9.13;;
22359;SDS011;11347;52.030;4.690;2022-11-15T00:41:10;20.40;;;8.83;;
22359;SDS011;11347;52.030;4.690;2022-11-15T00:43:35;23.17;;;9.00;;
22359;SDS011;11347;52.030;4.690;2022-11-15T00:46:01;20.73;;;9.40;;
22359;SDS011;11347;52.030;4.690;2022-11-15T00:48:27;20.57;;;9.37;;
22359;SDS011;11347;52.030;4.690;2022-11-15T00:50:53;22.97;;;9.00;;
22359;SDS011;11347;52.030;4.690;2022-11-15T00:53:19;18.43;;;8.97;;
22359;SDS011;11347;52.030;4.690;2022-11-15T00:55:44;21.80;;;9.60;;
22359;SDS011;11347;52.030;4.690;2022-11-15T00:58:11;18.13;;;9.00;;
22359;SDS011;11347;52.030;4.690;2022-11-15T01:00:37;20.70;;;9.03;;
22359;SDS011;11347;52.030;4.690;2022-11-15T01:03:02;20.63;;;8.87;;
22359;SDS011;11347;52.030;4.690;2022-11-15T01:05:28;18.07;;;8.87;;
22359;SDS011;11347;52.030;4.690;2022-11-15T01:07:54;19.13;;;8.63;;
22359;SDS011;11347;52.030;4.690;2022-11-15T01:10:21;17.97;;;8.20;;
22359;SDS011;11347;52.030;4.690;2022-11-15T01:12:47;19.37;;;9.13;;
22359;SDS011;11347;52.030;4.690;2022-11-15T01:15:13;18.30;;;8.70;;
22359;SDS011;11347;52.030;4.690;2022-11-15T01:17:38;22.10;;;8.63;;
22359;SDS011;11347;52.030;4.690;2022-11-15T01:20:04;18.47;;;8.70;;
22359;SDS011;11347;52.030;4.690;2022-11-15T01:22:30;21.23;;;9.27;;
22359;SDS011;11347;52.030;4.690;2022-11-15T01:24:56;18.93;;;7.93;;
22359;SDS011;11347;52.030;4.690;2022-11-15T01:27:21;19.93;;;8.67;;
22359;SDS011;11347;52.030;4.690;2022-11-15T01:29:47;20.87;;;9.10;;
22359;SDS011;11347;52.030;4.690;2022-11-15T01:32:13;18.40;;;8.10;;
22359;SDS011;11347;52.030;4.690;2022-11-15T01:34:38;18.63;;;8.77;;
22359;SDS011;11347;52.030;4.690;2022-11-15T01:37:04;21.17;;;8.50;;
22359;SDS011;11347;52.030;4.690;2022-11-15T01:39:29;18.10;;;8.47;;
22359;SDS011;11347;52.030;4.690;2022-11-15T01:41:55;18.07;;;8.10;;
22359;SDS011;11347;52.030;4.690;2022-11-15T01:46:59;17.93;;;8.00;;
22359;SDS011;11347;52.030;4.690;2022-11-15T01:49:32;22.17;;;8.47;;
22359;SDS011;11347;52.030;4.690;2022-11-15T01:52:00;16.60;;;8.43;;
22359;SDS011;11347;52.030;4.690;2022-11-15T01:54:28;21.63;;;8.37;;
22359;SDS011;11347;52.030;4.690;2022-11-15T01:57:15;19.33;;;8.57;;
22359;SDS011;11347;52.030;4.690;2022-11-15T01:59:40;18.77;;;8.37;;
22359;SDS011;11347;52.030;4.690;2022-11-15T02:02:08;21.43;;;9.07;;
22359;SDS011;11347;52.030;4.690;2022-11-15T02:04:35;23.70;;;9.03;;
22359;SDS011;11347;52.030;4.690;2022-11-15T02:07:09;19.87;;;8.20;;
22359;SDS011;11347;52.030;4.690;2022-11-15T02:09:36;20.10;;;8.93;;
22359;SDS011;11347;52.030;4.690;2022-11-15T02:12:02;21.07;;;9.00;;
22359;SDS011;11347;52.030;4.690;2022-11-15T02:14:28;19.70;;;8.40;;
22359;SDS011;11347;52.030;4.690;2022-11-15T02:22:37;21.97;;;9.10;;
22359;SDS011;11347;52.030;4.690;2022-11-15T02:33:43;21.70;;;8.90;;
22359;SDS011;11347;52.030;4.690;2022-11-15T02:38:52;21.53;;;9.20;;
22359;SDS011;11347;52.030;4.690;2022-11-15T02:44:23;20.43;;;9.00;;
22359;SDS011;11347;52.030;4.690;2022-11-15T02:46:54;20.57;;;9.27;;
22359;SDS011;11347;52.030;4.690;2022-11-15T02:49:52;19.13;;;9.47;;
22359;SDS011;11347;52.030;4.690;2022-11-15T02:52:20;20.10;;;9.20;;
22359;SDS011;11347;52.030;4.690;2022-11-15T02:54:56;18.73;;;8.70;;
22359;SDS011;11347;52.030;4.690;2022-11-15T03:02:42;23.40;;;8.70;;
22359;SDS011;11347;52.030;4.690;2022-11-15T03:05:33;23.23;;;9.37;;
22359;SDS011;11347;52.030;4.690;2022-11-15T03:08:17;25.03;;;9.30;;
22359;SDS011;11347;52.030;4.690;2022-11-15T03:13:35;21.37;;;9.47;;
22359;SDS011;11347;52.030;4.690;2022-11-15T03:19:08;21.87;;;9.27;;
22359;SDS011;11347;52.030;4.690;2022-11-15T03:21:41;21.97;;;9.20;;
22359;SDS011;11347;52.030;4.690;2022-11-15T03:24:09;24.57;;;10.10;;
22359;SDS011;11347;52.030;4.690;2022-11-15T03:26:37;22.67;;;9.27;;
22359;SDS011;11347;52.030;4.690;2022-11-15T03:29:13;21.20;;;9.07;;
22359;SDS011;11347;52.030;4.690;2022-11-15T03:31:47;19.07;;;9.00;;
22359;SDS011;11347;52.030;4.690;2022-11-15T03:34:29;22.03;;;8.90;;
22359;SDS011;11347;52.030;4.690;2022-11-15T03:37:15;23.13;;;9.07;;
22359;SDS011;11347;52.030;4.690;2022-11-15T03:39:42;19.83;;;8.43;;
22359;SDS011;11347;52.030;4.690;2022-11-15T03:45:01;23.43;;;9.43;;
22359;SDS011;11347;52.030;4.690;2022-11-15T03:47:54;21.37;;;8.90;;
22359;SDS011;11347;52.030;4.690;2022-11-15T03:50:26;17.43;;;8.53;;
22359;SDS011;11347;52.030;4.690;2022-11-15T03:52:53;19.00;;;8.37;;
22359;SDS011;11347;52.030;4.690;2022-11-15T03:55:20;19.20;;;8.47;;
22359;SDS011;11347;52.030;4.690;2022-11-15T03:57:46;15.60;;;7.40;;
22359;SDS011;11347;52.030;4.690;2022-11-15T04:00:15;22.40;;;8.40;;
22359;SDS011;11347;52.030;4.690;2022-11-15T04:02:41;18.73;;;7.90;;
22359;SDS011;11347;52.030;4.690;2022-11-15T04:05:06;17.30;;;7.73;;
22359;SDS011;11347;52.030;4.690;2022-11-15T04:07:32;16.23;;;8.07;;
22359;SDS011;11347;52.030;4.690;2022-11-15T04:09:58;15.63;;;7.57;;
22359;SDS011;11347;52.030;4.690;2022-11-15T04:12:34;17.43;;;7.30;;
22359;SDS011;11347;52.030;4.690;2022-11-15T04:15:05;14.63;;;8.00;;
22359;SDS011;11347;52.030;4.690;2022-11-15T04:17:37;16.33;;;7.57;;
22359;SDS011;11347;52.030;4.690;2022-11-15T04:20:13;13.97;;;7.23;;
22359;SDS011;11347;52.030;4.690;2022-11-15T04:23:00;15.10;;;7.40;;
22359;SDS011;11347;52.030;4.690;2022-11-15T04:25:45;15.87;;;7.60;;
22359;SDS011;11347;52.030;4.690;2022-11-15T04:28:15;13.57;;;6.60;;
22359;SDS011;11347;52.030;4.690;2022-11-15T04:30:40;14.87;;;6.40;;
22359;SDS011;11347;52.030;4.690;2022-11-15T04:33:06;17.37;;;6.73;;
22359;SDS011;11347;52.030;4.690;2022-11-15T04:35:32;13.33;;;7.03;;
22359;SDS011;11347;52.030;4.690;2022-11-15T04:37:57;14.40;;;6.97;;
22359;SDS011;11347;52.030;4.690;2022-11-15T04:40:23;12.70;;;6.23;;
22359;SDS011;11347;52.030;4.690;2022-11-15T04:42:49;12.20;;;6.93;;
22359;SDS011;11347;52.030;4.690;2022-11-15T04:45:15;12.53;;;6.30;;
22359;SDS011;11347;52.030;4.690;2022-11-15T04:47:42;14.57;;;6.23;;
22359;SDS011;11347;52.030;4.690;2022-11-15T04:50:09;15.53;;;6.43;;
22359;SDS011;11347;52.030;4.690;2022-11-15T04:52:38;13.33;;;6.53;;
22359;SDS011;11347;52.030;4.690;2022-11-15T04:55:05;12.37;;;5.70;;
22359;SDS011;11347;52.030;4.690;2022-11-15T04:57:31;9.90;;;5.47;;
22359;SDS011;11347;52.030;4.690;2022-11-15T04:59:56;14.03;;;5.60;;
22359;SDS011;11347;52.030;4.690;2022-11-15T05:02:22;11.10;;;5.47;;
22359;SDS011;11347;52.030;4.690;2022-11-15T05:04:47;10.27;;;5.40;;
22359;SDS011;11347;52.030;4.690;2022-11-15T05:07:13;11.20;;;5.57;;
22359;SDS011;11347;52.030;4.690;2022-11-15T05:09:38;11.83;;;5.40;;
22359;SDS011;11347;52.030;4.690;2022-11-15T05:12:04;11.90;;;5.03;;
22359;SDS011;11347;52.030;4.690;2022-11-15T05:14:30;12.53;;;5.80;;
22359;SDS011;11347;52.030;4.690;2022-11-15T05:16:55;10.87;;;5.03;;
22359;SDS011;11347;52.030;4.690;2022-11-15T05:19:21;11.00;;;5.67;;
22359;SDS011;11347;52.030;4.690;2022-11-15T05:21:46;10.80;;;5.47;;
22359;SDS011;11347;52.030;4.690;2022-11-15T05:24:12;9.23;;;4.43;;
22359;SDS011;11347;52.030;4.690;2022-11-15T05:26:37;10.90;;;5.00;;
22359;SDS011;11347;52.030;4.690;2022-11-15T05:29:03;11.27;;;4.70;;
22359;SDS011;11347;52.030;4.690;2022-11-15T05:31:28;8.97;;;4.37;;
22359;SDS011;11347;52.030;4.690;2022-11-15T05:33:55;8.43;;;4.33;;
22359;SDS011;11347;52.030;4.690;2022-11-15T05:38:58;9.43;;;3.77;;
22359;SDS011;11347;52.030;4.690;2022-11-15T05:41:26;8.03;;;4.10;;
22359;SDS011;11347;52.030;4.690;2022-11-15T05:43:57;8.47;;;4.23;;
22359;SDS011;11347;52.030;4.690;2022-11-15T05:46:24;6.87;;;4.00;;
22359;SDS011;11347;52.030;4.690;2022-11-15T05:48:49;8.53;;;3.73;;
22359;SDS011;11347;52.030;4.690;2022-11-15T05:51:17;12.57;;;4.37;;
22359;SDS011;11347;52.030;4.690;2022-11-15T05:53:45;10.37;;;3.70;;
22359;SDS011;11347;52.030;4.690;2022-11-15T05:56:12;8.47;;;3.90;;
22359;SDS011;11347;52.030;4.690;2022-11-15T05:58:38;6.93;;;3.40;;
22359;SDS011;11347;52.030;4.690;2022-11-15T06:01:04;7.07;;;3.47;;
22359;SDS011;11347;52.030;4.690;2022-11-15T06:03:30;6.37;;;3.30;;
22359;SDS011;11347;52.030;4.690;2022-11-15T06:05:56;6.83;;;3.83;;
22359;SDS011;11347;52.030;4.690;2022-11-15T06:08:22;6.63;;;3.20;;
22359;SDS011;11347;52.030;4.690;2022-11-15T06:10:47;5.70;;;3.00;;
22359;SDS011;11347;52.030;4.690;2022-11-15T06:13:13;6.47;;;3.00;;
22359;SDS011;11347;52.030;4.690;2022-11-15T06:15:38;7.37;;;3.20;;
22359;SDS011;11347;52.030;4.690;2022-11-15T06:18:04;8.47;;;3.30;;
22359;SDS011;11347;52.030;4.690;2022-11-15T06:20:30;7.30;;;3.47;;
22359;SDS011;11347;52.030;4.690;2022-11-15T06:22:59;7.67;;;3.03;;
22359;SDS011;11347;52.030;4.690;2022-11-15T06:25:26;5.07;;;2.70;;
22359;SDS011;11347;52.030;4.690;2022-11-15T06:27:53;6.77;;;3.27;;
22359;SDS011;11347;52.030;4.690;2022-11-15T06:30:20;6.60;;;2.90;;
22359;SDS011;11347;52.030;4.690;2022-11-15T06:32:47;6.47;;;3.13;;
22359;SDS011;11347;52.030;4.690;2022-11-15T06:35:13;7.53;;;3.17;;
22359;SDS011;11347;52.030;4.690;2022-11-15T06:37:39;7.57;;;3.07;;
22359;SDS011;11347;52.030;4.690;2022-11-15T06:40:05;7.63;;;2.87;;
22359;SDS011;11347;52.030;4.690;2022-11-15T06:42:31;8.33;;;2.90;;
22359;SDS011;11347;52.030;4.690;2022-11-15T06:44:57;5.47;;;2.90;;
22359;SDS011;11347;52.030;4.690;2022-11-15T06:47:22;5.57;;;2.50;;
22359;SDS011;11347;52.030;4.690;2022-11-15T06:49:48;5.10;;;2.30;;
22359;SDS011;11347;52.030;4.690;2022-11-15T06:52:13;5.27;;;2.57;;
22359;SDS011;11347;52.030;4.690;2022-11-15T06:54:39;6.57;;;3.07;;
22359;SDS011;11347;52.030;4.690;2022-11-15T06:57:04;4.50;;;2.60;;
22359;SDS011;11347;52.030;4.690;2022-11-15T06:59:30;4.33;;;2.70;;
22359;SDS011;11347;52.030;4.690;2022-11-15T07:01:55;5.73;;;2.40;;
22359;SDS011;11347;52.030;4.690;2022-11-15T07:04:21;5.90;;;2.70;;
22359;SDS011;11347;52.030;4.690;2022-11-15T07:06:47;5.37;;;2.30;;
22359;SDS011;11347;52.030;4.690;2022-11-15T07:09:13;5.17;;;2.43;;
22359;SDS011;11347;52.030;4.690;2022-11-15T07:11:38;6.13;;;2.33;;
22359;SDS011;11347;52.030;4.690;2022-11-15T07:14:04;5.00;;;2.43;;
22359;SDS011;11347;52.030;4.690;2022-11-15T07:16:30;8.33;;;2.30;;
22359;SDS011;11347;52.030;4.690;2022-11-15T07:18:55;7.70;;;2.20;;
22359;SDS011;11347;52.030;4.690;2022-11-15T07:21:21;5.77;;;2.73;;
22359;SDS011;11347;52.030;4.690;2022-11-15T07:23:47;5.97;;;2.50;;
22359;SDS011;11347;52.030;4.690;2022-11-15T07:26:12;6.63;;;2.17;;
22359;SDS011;11347;52.030;4.690;2022-11-15T07:28:38;9.73;;;2.47;;
22359;SDS011;11347;52.030;4.690;2022-11-15T07:31:03;8.27;;;2.20;;
22359;SDS011;11347;52.030;4.690;2022-11-15T07:33:30;4.10;;;2.07;;
22359;SDS011;11347;52.030;4.690;2022-11-15T07:35:58;6.57;;;2.20;;
22359;SDS011;11347;52.030;4.690;2022-11-15T07:38:26;5.63;;;2.23;;
22359;SDS011;11347;52.030;4.690;2022-11-15T07:40:59;8.50;;;2.20;;
22359;SDS011;11347;52.030;4.690;2022-11-15T07:43:26;4.63;;;1.90;;
22359;SDS011;11347;52.030;4.690;2022-11-15T07:45:57;6.47;;;2.30;;
22359;SDS011;11347;52.030;4.690;2022-11-15T07:48:23;4.87;;;1.87;;
22359;SDS011;11347;52.030;4.690;2022-11-15T07:50:48;7.40;;;2.43;;
22359;SDS011;11347;52.030;4.690;2022-11-15T07:53:14;8.97;;;2.30;;
22359;SDS011;11347;52.030;4.690;2022-11-15T07:55:40;7.57;;;2.07;;
22359;SDS011;11347;52.030;4.690;2022-11-15T07:58:07;5.27;;;2.13;;
22359;SDS011;11347;52.030;4.690;2022-11-15T08:00:35;5.90;;;1.97;;
22359;SDS011;11347;52.030;4.690;2022-11-15T08:03:05;4.23;;;1.97;;
22359;SDS011;11347;52.030;4.690;2022-11-15T08:05:33;3.13;;;1.77;;
22359;SDS011;11347;52.030;4.690;2022-11-15T08:07:59;6.27;;;1.90;;
22359;SDS011;11347;52.030;4.690;2022-11-15T08:10:25;8.30;;;2.10;;
22359;SDS011;11347;52.030;4.690;2022-11-15T08:15:31;6.90;;;2.13;;
22359;SDS011;11347;52.030;4.690;2022-11-15T08:17:58;3.87;;;1.90;;
22359;SDS011;11347;52.030;4.690;2022-11-15T08:20:26;5.23;;;2.10;;
22359;SDS011;11347;52.030;4.690;2022-11-15T08:22:57;7.23;;;2.07;;
22359;SDS011;11347;52.030;4.690;2022-11-15T08:25:24;4.73;;;1.90;;
22359;SDS011;11347;52.030;4.690;2022-11-15T08:27:53;5.57;;;2.03;;
22359;SDS011;11347;52.030;4.690;2022-11-15T08:30:20;5.10;;;2.13;;
22359;SDS011;11347;52.030;4.690;2022-11-15T08:32:46;4.87;;;2.20;;
22359;SDS011;11347;52.030;4.690;2022-11-15T08:35:12;6.53;;;2.30;;
22359;SDS011;11347;52.030;4.690;2022-11-15T08:37:37;6.87;;;2.00;;
22359;SDS011;11347;52.030;4.690;2022-11-15T08:40:03;3.67;;;1.83;;
22359;SDS011;11347;52.030;4.690;2022-11-15T08:42:29;5.57;;;2.13;;
22359;SDS011;11347;52.030;4.690;2022-11-15T08:44:55;6.20;;;2.00;;
22359;SDS011;11347;52.030;4.690;2022-11-15T08:47:20;5.33;;;2.00;;
22359;SDS011;11347;52.030;4.690;2022-11-15T08:49:46;3.53;;;1.80;;
22359;SDS011;11347;52.030;4.690;2022-11-15T08:52:12;4.23;;;1.80;;
22359;SDS011;11347;52.030;4.690;2022-11-15T08:54:38;5.20;;;2.20;;
22359;SDS011;11347;52.030;4.690;2022-11-15T08:57:04;3.87;;;2.10;;
22359;SDS011;11347;52.030;4.690;2022-11-15T08:59:30;5.30;;;1.63;;
22359;SDS011;11347;52.030;4.690;2022-11-15T09:01:55;5.40;;;1.80;;
22359;SDS011;11347;52.030;4.690;2022-11-15T09:04:21;6.37;;;1.90;;
22359;SDS011;11347;52.030;4.690;2022-11-15T09:06:46;6.30;;;1.90;;
22359;SDS011;11347;52.030;4.690;2022-11-15T09:09:12;5.43;;;2.00;;
22359;SDS011;11347;52.030;4.690;2022-11-15T09:11:37;5.13;;;1.80;;
22359;SDS011;11347;52.030;4.690;2022-11-15T09:14:03;3.80;;;1.70;;
22359;SDS011;11347;52.030;4.690;2022-11-15T09:16:30;4.50;;;1.90;;
22359;SDS011;11347;52.030;4.690;2022-11-15T09:18:56;6.03;;;1.80;;
22359;SDS011;11347;52.030;4.690;2022-11-15T09:21:22;4.97;;;1.90;;
22359;SDS011;11347;52.030;4.690;2022-11-15T09:23:49;5.43;;;1.60;;
22359;SDS011;11347;52.030;4.690;2022-11-15T09:26:17;5.07;;;1.63;;
22359;SDS011;11347;52.030;4.690;2022-11-15T09:28:43;5.03;;;1.53;;
22359;SDS011;11347;52.030;4.690;2022-11-15T09:31:09;3.93;;;1.70;;
22359;SDS011;11347;52.030;4.690;2022-11-15T09:33:34;4.53;;;1.83;;
22359;SDS011;11347;52.030;4.690;2022-11-15T09:36:01;3.93;;;1.67;;
22359;SDS011;11347;52.030;4.690;2022-11-15T09:38:29;3.43;;;1.50;;
22359;SDS011;11347;52.030;4.690;2022-11-15T09:46:42;5.70;;;1.83;;
22359;SDS011;11347;52.030;4.690;2022-11-15T09:49:20;2.60;;;1.43;;
22359;SDS011;11347;52.030;4.690;2022-11-15T09:51:50;3.20;;;1.33;;
22359;SDS011;11347;52.030;4.690;2022-11-15T09:56:56;5.17;;;1.80;;
22359;SDS011;11347;52.030;4.690;2022-11-15T10:02:20;4.57;;;1.40;;
22359;SDS011;11347;52.030;4.690;2022-11-15T10:05:03;3.33;;;1.40;;
22359;SDS011;11347;52.030;4.690;2022-11-15T10:10:22;4.67;;;1.60;;
22359;SDS011;11347;52.030;4.690;2022-11-15T10:13:06;4.13;;;1.33;;
22359;SDS011;11347;52.030;4.690;2022-11-15T10:15:38;4.83;;;1.60;;
22359;SDS011;11347;52.030;4.690;2022-11-15T10:21:00;3.80;;;1.30;;
22359;SDS011;11347;52.030;4.690;2022-11-15T10:23:38;5.97;;;1.30;;
22359;SDS011;11347;52.030;4.690;2022-11-15T10:26:04;2.53;;;1.37;;
22359;SDS011;11347;52.030;4.690;2022-11-15T10:28:44;2.70;;;1.30;;
22359;SDS011;11347;52.030;4.690;2022-11-15T10:31:25;4.57;;;1.50;;
22359;SDS011;11347;52.030;4.690;2022-11-15T10:34:06;4.07;;;1.30;;
22359;SDS011;11347;52.030;4.690;2022-11-15T10:36:38;5.17;;;1.20;;
22359;SDS011;11347;52.030;4.690;2022-11-15T10:39:11;3.90;;;1.40;;
22359;SDS011;11347;52.030;4.690;2022-11-15T10:41:38;4.07;;;1.40;;
22359;SDS011;11347;52.030;4.690;2022-11-15T10:44:10;5.03;;;1.33;;
22359;SDS011;11347;52.030;4.690;2022-11-15T10:46:38;3.07;;;1.30;;
22359;SDS011;11347;52.030;4.690;2022-11-15T10:51:47;4.17;;;1.43;;
22359;SDS011;11347;52.030;4.690;2022-11-15T10:54:23;3.30;;;1.20;;
22359;SDS011;11347;52.030;4.690;2022-11-15T10:56:55;3.50;;;1.23;;
22359;SDS011;11347;52.030;4.690;2022-11-15T10:59:27;5.17;;;1.53;;
22359;SDS011;11347;52.030;4.690;2022-11-15T11:01:55;2.40;;;1.00;;
22359;SDS011;11347;52.030;4.690;2022-11-15T11:04:21;2.57;;;1.20;;
22359;SDS011;11347;52.030;4.690;2022-11-15T11:06:54;4.13;;;1.20;;
22359;SDS011;11347;52.030;4.690;2022-11-15T11:11:53;5.87;;;1.33;;
22359;SDS011;11347;52.030;4.690;2022-11-15T11:16:53;2.77;;;1.07;;
22359;SDS011;11347;52.030;4.690;2022-11-15T11:19:30;3.83;;;1.10;;
22359;SDS011;11347;52.030;4.690;2022-11-15T11:22:06;3.00;;;1.13;;
22359;SDS011;11347;52.030;4.690;2022-11-15T11:35:24;2.37;;;1.00;;
22359;SDS011;11347;52.030;4.690;2022-11-15T11:40:44;5.20;;;1.00;;
22359;SDS011;11347;52.030;4.690;2022-11-15T11:46:55;14.00;;;2.33;;
22359;SDS011;11347;52.030;4.690;2022-11-15T11:57:25;9.07;;;1.70;;
22359;SDS011;11347;52.030;4.690;2022-11-15T12:00:04;5.80;;;1.60;;
22359;SDS011;11347;52.030;4.690;2022-11-15T12:05:29;11.13;;;1.70;;
22359;SDS011;11347;52.030;4.690;2022-11-15T12:08:04;10.87;;;1.80;;
22359;SDS011;11347;52.030;4.690;2022-11-15T12:10:53;7.93;;;1.70;;
22359;SDS011;11347;52.030;4.690;2022-11-15T12:13:29;9.50;;;1.40;;
22359;SDS011;11347;52.030;4.690;2022-11-15T12:16:01;10.10;;;1.63;;
22359;SDS011;11347;52.030;4.690;2022-11-15T12:18:35;9.70;;;1.67;;
22359;SDS011;11347;52.030;4.690;2022-11-15T12:21:04;8.93;;;1.67;;
22359;SDS011;11347;52.030;4.690;2022-11-15T12:23:43;11.33;;;1.60;;
22359;SDS011;11347;52.030;4.690;2022-11-15T12:26:18;9.37;;;1.97;;
22359;SDS011;11347;52.030;4.690;2022-11-15T12:28:52;7.10;;;1.60;;
22359;SDS011;11347;52.030;4.690;2022-11-15T12:31:24;6.53;;;2.00;;
22359;SDS011;11347;52.030;4.690;2022-11-15T12:34:12;11.80;;;1.60;;
22359;SDS011;11347;52.030;4.690;2022-11-15T12:36:55;6.70;;;1.70;;
22359;SDS011;11347;52.030;4.690;2022-11-15T12:39:21;7.70;;;1.77;;
22359;SDS011;11347;52.030;4.690;2022-11-15T12:44:56;10.20;;;1.83;;
22359;SDS011;11347;52.030;4.690;2022-11-15T12:47:25;6.03;;;1.57;;
22359;SDS011;11347;52.030;4.690;2022-11-15T12:49:51;8.47;;;1.70;;
22359;SDS011;11347;52.030;4.690;2022-11-15T12:52:17;5.20;;;1.30;;
22359;SDS011;11347;52.030;4.690;2022-11-15T13:02:20;7.20;;;1.40;;
22359;SDS011;11347;52.030;4.690;2022-11-15T13:04:49;7.27;;;1.37;;
22359;SDS011;11347;52.030;4.690;2022-11-15T13:10:00;6.83;;;1.30;;
22359;SDS011;11347;52.030;4.690;2022-11-15T13:17:37;5.50;;;1.40;;
22359;SDS011;11347;52.030;4.690;2022-11-15T13:22:43;6.00;;;1.37;;
22359;SDS011;11347;52.030;4.690;2022-11-15T13:28:17;3.07;;;1.00;;
22359;SDS011;11347;52.030;4.690;2022-11-15T13:33:17;5.67;;;1.20;;
22359;SDS011;11347;52.030;4.690;2022-11-15T13:35:46;4.20;;;1.10;;
22359;SDS011;11347;52.030;4.690;2022-11-15T13:40:49;4.03;;;0.90;;
22359;SDS011;11347;52.030;4.690;2022-11-15T13:43:19;3.70;;;1.07;;
22359;SDS011;11347;52.030;4.690;2022-11-15T13:48:42;4.93;;;1.30;;
22359;SDS011;11347;52.030;4.690;2022-11-15T13:51:13;4.33;;;0.97;;
22359;SDS011;11347;52.030;4.690;2022-11-15T13:53:52;3.43;;;1.00;;
22359;SDS011;11347;52.030;4.690;2022-11-15T13:56:28;3.03;;;0.80;;
22359;SDS011;11347;52.030;4.690;2022-11-15T13:58:57;5.40;;;1.10;;
22359;SDS011;11347;52.030;4.690;2022-11-15T14:01:22;4.00;;;1.13;;
22359;SDS011;11347;52.030;4.690;2022-11-15T14:03:54;4.40;;;1.20;;
22359;SDS011;11347;52.030;4.690;2022-11-15T14:06:23;4.17;;;1.00;;
22359;SDS011;11347;52.030;4.690;2022-11-15T14:09:03;3.73;;;1.07;;
22359;SDS011;11347;52.030;4.690;2022-11-15T14:11:36;4.77;;;1.20;;
22359;SDS011;11347;52.030;4.690;2022-11-15T14:19:04;4.33;;;0.87;;
22359;SDS011;11347;52.030;4.690;2022-11-15T14:21:31;4.20;;;1.20;;
22359;SDS011;11347;52.030;4.690;2022-11-15T14:26:56;2.80;;;0.80;;
22359;SDS011;11347;52.030;4.690;2022-11-15T14:29:25;4.30;;;1.03;;
22359;SDS011;11347;52.030;4.690;2022-11-15T14:34:46;3.93;;;0.80;;
22359;SDS011;11347;52.030;4.690;2022-11-15T14:37:16;2.90;;;0.80;;
22359;SDS011;11347;52.030;4.690;2022-11-15T14:39:45;2.73;;;0.80;;
22359;SDS011;11347;52.030;4.690;2022-11-15T14:42:10;4.20;;;0.90;;
22359;SDS011;11347;52.030;4.690;2022-11-15T14:44:36;2.27;;;0.90;;
22359;SDS011;11347;52.030;4.690;2022-11-15T14:47:01;2.83;;;0.80;;
22359;SDS011;11347;52.030;4.690;2022-11-15T14:49:27;2.50;;;0.70;;
22359;SDS011;11347;52.030;4.690;2022-11-15T14:51:52;2.53;;;0.80;;
22359;SDS011;11347;52.030;4.690;2022-11-15T14:54:18;2.97;;;0.80;;
22359;SDS011;11347;52.030;4.690;2022-11-15T14:56:44;2.37;;;0.90;;
22359;SDS011;11347;52.030;4.690;2022-11-15T14:59:09;2.43;;;0.70;;
22359;SDS011;11347;52.030;4.690;2022-11-15T15:01:35;4.73;;;0.87;;
22359;SDS011;11347;52.030;4.690;2022-11-15T15:04:00;2.93;;;0.70;;
22359;SDS011;11347;52.030;4.690;2022-11-15T15:06:26;4.63;;;0.83;;
22359;SDS011;11347;52.030;4.690;2022-11-15T15:08:51;4.00;;;0.93;;
22359;SDS011;11347;52.030;4.690;2022-11-15T15:11:24;3.47;;;0.90;;
22359;SDS011;11347;52.030;4.690;2022-11-15T15:13:52;7.00;;;1.27;;
22359;SDS011;11347;52.030;4.690;2022-11-15T15:16:21;3.33;;;0.90;;
22359;SDS011;11347;52.030;4.690;2022-11-15T15:18:46;3.33;;;0.80;;
22359;SDS011;11347;52.030;4.690;2022-11-15T15:21:23;2.83;;;0.77;;
22359;SDS011;11347;52.030;4.690;2022-11-15T15:23:50;3.73;;;0.80;;
22359;SDS011;11347;52.030;4.690;2022-11-15T15:26:18;2.93;;;0.70;;
22359;SDS011;11347;52.030;4.690;2022-11-15T15:28:44;3.57;;;0.87;;
22359;SDS011;11347;52.030;4.690;2022-11-15T15:31:10;3.50;;;0.80;;
22359;SDS011;11347;52.030;4.690;2022-11-15T15:33:36;2.87;;;0.67;;
22359;SDS011;11347;52.030;4.690;2022-11-15T15:36:02;2.00;;;0.80;;
22359;SDS011;11347;52.030;4.690;2022-11-15T15:38:28;2.87;;;0.83;;
22359;SDS011;11347;52.030;4.690;2022-11-15T15:40:54;2.47;;;0.70;;
22359;SDS011;11347;52.030;4.690;2022-11-15T15:43:20;4.30;;;0.90;;
22359;SDS011;11347;52.030;4.690;2022-11-15T15:45:45;2.93;;;0.73;;
22359;SDS011;11347;52.030;4.690;2022-11-15T15:48:12;2.10;;;0.70;;
22359;SDS011;11347;52.030;4.690;2022-11-15T15:50:42;1.97;;;0.70;;
22359;SDS011;11347;52.030;4.690;2022-11-15T15:53:08;2.27;;;0.70;;
22359;SDS011;11347;52.030;4.690;2022-11-15T15:55:35;2.67;;;0.80;;
22359;SDS011;11347;52.030;4.690;2022-11-15T15:58:01;2.43;;;0.77;;
22359;SDS011;11347;52.030;4.690;2022-11-15T16:00:27;2.73;;;0.87;;
22359;SDS011;11347;52.030;4.690;2022-11-15T16:02:53;2.43;;;0.70;;
22359;SDS011;11347;52.030;4.690;2022-11-15T16:05:19;2.23;;;0.70;;
22359;SDS011;11347;52.030;4.690;2022-11-15T16:07:46;3.13;;;0.70;;
22359;SDS011;11347;52.030;4.690;2022-11-15T16:12:41;2.53;;;0.90;;
22359;SDS011;11347;52.030;4.690;2022-11-15T16:15:07;2.60;;;0.70;;
22359;SDS011;11347;52.030;4.690;2022-11-15T16:17:35;1.73;;;0.60;;
22359;SDS011;11347;52.030;4.690;2022-11-15T16:20:04;1.27;;;0.60;;
22359;SDS011;11347;52.030;4.690;2022-11-15T16:22:30;2.13;;;0.80;;
22359;SDS011;11347;52.030;4.690;2022-11-15T16:24:56;3.57;;;0.93;;
22359;SDS011;11347;52.030;4.690;2022-11-15T16:27:21;2.80;;;0.90;;
22359;SDS011;11347;52.030;4.690;2022-11-15T16:29:47;4.43;;;1.00;;
22359;SDS011;11347;52.030;4.690;2022-11-15T16:32:13;2.87;;;0.90;;
22359;SDS011;11347;52.030;4.690;2022-11-15T16:34:39;3.13;;;0.70;;
22359;SDS011;11347;52.030;4.690;2022-11-15T16:37:05;3.73;;;0.87;;
22359;SDS011;11347;52.030;4.690;2022-11-15T16:39:31;2.33;;;0.63;;
22359;SDS011;11347;52.030;4.690;2022-11-15T16:41:57;2.47;;;1.10;;
22359;SDS011;11347;52.030;4.690;2022-11-15T16:44:23;1.80;;;0.83;;
22359;SDS011;11347;52.030;4.690;2022-11-15T16:46:49;3.30;;;0.80;;
22359;SDS011;11347;52.030;4.690;2022-11-15T16:49:16;2.73;;;0.93;;
22359;SDS011;11347;52.030;4.690;2022-11-15T16:51:46;3.17;;;0.80;;
22359;SDS011;11347;52.030;4.690;2022-11-15T16:54:13;2.60;;;0.83;;
22359;SDS011;11347;52.030;4.690;2022-11-15T16:56:39;3.37;;;0.90;;
22359;SDS011;11347;52.030;4.690;2022-11-15T16:59:06;2.50;;;0.90;;
22359;SDS011;11347;52.030;4.690;2022-11-15T17:01:34;1.80;;;0.80;;
22359;SDS011;11347;52.030;4.690;2022-11-15T17:04:02;3.67;;;0.90;;
22359;SDS011;11347;52.030;4.690;2022-11-15T17:06:36;2.60;;;0.93;;
22359;SDS011;11347;52.030;4.690;2022-11-15T17:09:06;2.03;;;0.87;;
22359;SDS011;11347;52.030;4.690;2022-11-15T17:11:36;2.17;;;0.90;;